sensor_id;sensor_type;location;lat;lon;timestamp;pressure;altitude;pressure_sealevel;temperature;humidity
41654;BME280;68687;52.030;7.110;2023-11-21T00:01:20;100231.56;;;8.02;100.00
41654;BME280;68687;52.030;7.110;2023-11-21T00:03:46;100253.56;;;8.12;100.00
41654;BME280;68687;52.030;7.110;2023-11-21T00:06:11;100241.00;;;8.13;100.00
41654;BME280;68687;52.030;7.110;2023-11-21T00:08:36;100250.22;;;8.10;100.00
41654;BME280;68687;52.030;7.110;2023-11-21T00:11:02;100254.69;;;7.95;100.00
41654;BME280;68687;52.030;7.110;2023-11-21T00:13:30;100250.81;;;7.97;100.00
41654;BME280;68687;52.030;7.110;2023-11-21T00:16:02;100246.91;;;8.08;100.00
41654;BME280;68687;52.030;7.110;2023-11-21T00:18:27;100243.69;;;8.13;100.00
41654;BME280;68687;52.030;7.110;2023-11-21T00:20:53;100249.34;;;8.18;100.00
41654;BME280;68687;52.030;7.110;2023-11-21T00:23:18;100246.16;;;8.22;100.00
41654;BME280;68687;52.030;7.110;2023-11-21T00:25:43;100245.97;;;8.24;100.00
41654;BME280;68687;52.030;7.110;2023-11-21T00:28:09;100258.81;;;8.28;100.00
41654;BME280;68687;52.030;7.110;2023-11-21T00:30:34;100257.34;;;8.18;100.00
41654;BME280;68687;52.030;7.110;2023-11-21T00:32:59;100249.88;;;8.13;100.00
41654;BME280;68687;52.030;7.110;2023-11-21T00:35:25;100259.66;;;8.21;100.00
41654;BME280;68687;52.030;7.110;2023-11-21T00:37:50;100259.16;;;8.25;100.00
41654;BME280;68687;52.030;7.110;2023-11-21T00:40:15;100261.19;;;8.23;100.00
41654;BME280;68687;52.030;7.110;2023-11-21T00:42:44;100257.50;;;8.24;100.00
41654;BME280;68687;52.030;7.110;2023-11-21T00:45:09;100244.78;;;8.26;100.00
41654;BME280;68687;52.030;7.110;2023-11-21T00:47:35;100258.13;;;8.34;100.00
41654;BME280;68687;52.030;7.110;2023-11-21T00:50:00;100256.94;;;8.37;100.00
41654;BME280;68687;52.030;7.110;2023-11-21T00:52:25;100255.91;;;8.38;100.00
41654;BME280;68687;52.030;7.110;2023-11-21T00:54:51;100258.06;;;8.43;100.00
41654;BME280;68687;52.030;7.110;2023-11-21T00:57:16;100260.91;;;8.41;100.00
41654;BME280;68687;52.030;7.110;2023-11-21T00:59:44;100257.41;;;8.41;100.00
41654;BME280;68687;52.030;7.110;2023-11-21T01:02:10;100262.22;;;8.45;100.00
41654;BME280;68687;52.030;7.110;2023-11-21T01:04:41;100260.50;;;8.52;100.00
41654;BME280;68687;52.030;7.110;2023-11-21T01:07:07;100262.63;;;8.57;100.00
41654;BME280;68687;52.030;7.110;2023-11-21T01:09:32;100273.09;;;8.66;100.00
41654;BME280;68687;52.030;7.110;2023-11-21T01:11:58;100272.44;;;8.64;100.00
41654;BME280;68687;52.030;7.110;2023-11-21T01:14:25;100278.72;;;8.72;100.00
41654;BME280;68687;52.030;7.110;2023-11-21T01:16:52;100283.72;;;8.75;100.00
41654;BME280;68687;52.030;7.110;2023-11-21T01:19:17;100278.53;;;8.73;100.00
41654;BME280;68687;52.030;7.110;2023-11-21T01:21:43;100275.41;;;8.70;100.00
41654;BME280;68687;52.030;7.110;2023-11-21T01:24:08;100286.22;;;8.76;100.00
41654;BME280;68687;52.030;7.110;2023-11-21T01:26:34;100295.56;;;8.80;100.00
41654;BME280;68687;52.030;7.110;2023-11-21T01:29:05;100292.16;;;8.86;100.00
41654;BME280;68687;52.030;7.110;2023-11-21T01:31:33;100302.50;;;8.89;100.00
41654;BME280;68687;52.030;7.110;2023-11-21T01:33:59;100307.22;;;8.87;100.00
41654;BME280;68687;52.030;7.110;2023-11-21T01:36:30;100305.91;;;8.83;100.00
41654;BME280;68687;52.030;7.110;2023-11-21T01:38:57;100303.25;;;8.83;100.00
41654;BME280;68687;52.030;7.110;2023-11-21T01:41:27;100307.41;;;8.86;100.00
41654;BME280;68687;52.030;7.110;2023-11-21T01:43:56;100309.88;;;8.87;100.00
41654;BME280;68687;52.030;7.110;2023-11-21T01:46:22;100310.19;;;8.92;100.00
41654;BME280;68687;52.030;7.110;2023-11-21T01:48:49;100307.97;;;8.96;100.00
41654;BME280;68687;52.030;7.110;2023-11-21T01:51:15;100317.47;;;8.98;100.00
41654;BME280;68687;52.030;7.110;2023-11-21T01:53:43;100310.75;;;9.03;100.00
41654;BME280;68687;52.030;7.110;2023-11-21T01:56:14;100312.13;;;8.98;100.00
41654;BME280;68687;52.030;7.110;2023-11-21T01:58:42;100318.63;;;9.04;100.00
41654;BME280;68687;52.030;7.110;2023-11-21T02:01:11;100317.84;;;8.95;100.00
41654;BME280;68687;52.030;7.110;2023-11-21T02:03:36;100311.38;;;8.90;100.00
41654;BME280;68687;52.030;7.110;2023-11-21T02:06:02;100313.50;;;8.94;100.00
41654;BME280;68687;52.030;7.110;2023-11-21T02:08:27;100318.50;;;8.97;100.00
41654;BME280;68687;52.030;7.110;2023-11-21T02:10:59;100321.16;;;8.97;100.00
41654;BME280;68687;52.030;7.110;2023-11-21T02:13:24;100325.03;;;8.95;100.00
41654;BME280;68687;52.030;7.110;2023-11-21T02:15:52;100323.00;;;8.97;100.00
41654;BME280;68687;52.030;7.110;2023-11-21T02:18:19;100324.50;;;8.99;100.00
41654;BME280;68687;52.030;7.110;2023-11-21T02:20:44;100328.38;;;8.97;100.00
41654;BME280;68687;52.030;7.110;2023-11-21T02:23:11;100329.66;;;9.01;100.00
41654;BME280;68687;52.030;7.110;2023-11-21T02:25:38;100337.53;;;9.03;100.00
41654;BME280;68687;52.030;7.110;2023-11-21T02:28:09;100331.47;;;9.09;100.00
41654;BME280;68687;52.030;7.110;2023-11-21T02:30:37;100330.63;;;9.08;100.00
41654;BME280;68687;52.030;7.110;2023-11-21T02:33:03;100343.47;;;9.13;100.00
41654;BME280;68687;52.030;7.110;2023-11-21T02:35:28;100344.50;;;9.12;100.00
41654;BME280;68687;52.030;7.110;2023-11-21T02:37:54;100345.50;;;9.11;100.00
41654;BME280;68687;52.030;7.110;2023-11-21T02:40:22;100350.84;;;9.11;100.00
41654;BME280;68687;52.030;7.110;2023-11-21T02:42:50;100353.25;;;9.06;100.00
41654;BME280;68687;52.030;7.110;2023-11-21T02:45:19;100349.56;;;9.07;100.00
41654;BME280;68687;52.030;7.110;2023-11-21T02:47:46;100347.81;;;9.14;100.00
41654;BME280;68687;52.030;7.110;2023-11-21T02:50:12;100351.44;;;9.21;100.00
41654;BME280;68687;52.030;7.110;2023-11-21T02:52:38;100342.38;;;9.22;100.00
41654;BME280;68687;52.030;7.110;2023-11-21T02:55:05;100349.56;;;9.07;100.00
41654;BME280;68687;52.030;7.110;2023-11-21T02:57:32;100347.56;;;9.01;100.00
41654;BME280;68687;52.030;7.110;2023-11-21T03:00:01;100339.53;;;9.01;100.00
41654;BME280;68687;52.030;7.110;2023-11-21T03:02:27;100342.34;;;9.07;100.00
41654;BME280;68687;52.030;7.110;2023-11-21T03:04:53;100351.88;;;9.10;100.00
41654;BME280;68687;52.030;7.110;2023-11-21T03:07:18;100345.13;;;9.14;100.00
41654;BME280;68687;52.030;7.110;2023-11-21T03:09:47;100351.78;;;9.18;100.00
41654;BME280;68687;52.030;7.110;2023-11-21T03:12:12;100358.34;;;9.15;100.00
41654;BME280;68687;52.030;7.110;2023-11-21T03:14:38;100359.66;;;9.19;100.00
41654;BME280;68687;52.030;7.110;2023-11-21T03:17:03;100363.34;;;9.18;100.00
41654;BME280;68687;52.030;7.110;2023-11-21T03:19:30;100371.91;;;9.14;100.00
41654;BME280;68687;52.030;7.110;2023-11-21T03:21:55;100372.28;;;9.11;100.00
41654;BME280;68687;52.030;7.110;2023-11-21T03:24:26;100375.91;;;9.18;100.00
41654;BME280;68687;52.030;7.110;2023-11-21T03:26:52;100375.81;;;9.26;100.00
41654;BME280;68687;52.030;7.110;2023-11-21T03:29:18;100370.28;;;9.27;100.00
41654;BME280;68687;52.030;7.110;2023-11-21T03:31:46;100376.00;;;9.24;100.00
41654;BME280;68687;52.030;7.110;2023-11-21T03:34:19;100375.63;;;9.27;100.00
41654;BME280;68687;52.030;7.110;2023-11-21T03:36:45;100375.34;;;9.22;100.00
41654;BME280;68687;52.030;7.110;2023-11-21T03:39:11;100386.53;;;9.26;100.00
41654;BME280;68687;52.030;7.110;2023-11-21T03:41:36;100382.19;;;9.25;100.00
41654;BME280;68687;52.030;7.110;2023-11-21T03:44:02;100377.00;;;9.23;100.00
41654;BME280;68687;52.030;7.110;2023-11-21T03:46:30;100374.16;;;9.25;100.00
41654;BME280;68687;52.030;7.110;2023-11-21T03:48:55;100374.06;;;9.18;100.00
41654;BME280;68687;52.030;7.110;2023-11-21T03:51:21;100383.28;;;9.16;100.00
41654;BME280;68687;52.030;7.110;2023-11-21T03:53:46;100379.34;;;9.04;100.00
41654;BME280;68687;52.030;7.110;2023-11-21T03:56:13;100385.38;;;9.06;100.00
41654;BME280;68687;52.030;7.110;2023-11-21T03:58:39;100380.22;;;9.04;100.00
41654;BME280;68687;52.030;7.110;2023-11-21T04:01:04;100388.34;;;9.11;100.00
41654;BME280;68687;52.030;7.110;2023-11-21T04:03:36;100385.38;;;9.06;100.00
41654;BME280;68687;52.030;7.110;2023-11-21T04:06:01;100382.94;;;8.96;100.00
41654;BME280;68687;52.030;7.110;2023-11-21T04:08:35;100390.13;;;8.95;100.00
41654;BME280;68687;52.030;7.110;2023-11-21T04:11:01;100388.81;;;8.91;100.00
41654;BME280;68687;52.030;7.110;2023-11-21T04:13:29;100387.50;;;8.87;100.00
41654;BME280;68687;52.030;7.110;2023-11-21T04:15:55;100393.91;;;8.55;100.00
41654;BME280;68687;52.030;7.110;2023-11-21T04:18:21;100385.72;;;8.49;100.00
41654;BME280;68687;52.030;7.110;2023-11-21T04:20:46;100398.16;;;8.42;100.00
41654;BME280;68687;52.030;7.110;2023-11-21T04:23:11;100401.19;;;8.39;100.00
41654;BME280;68687;52.030;7.110;2023-11-21T04:25:38;100407.19;;;8.41;100.00
41654;BME280;68687;52.030;7.110;2023-11-21T04:28:04;100408.50;;;8.45;100.00
41654;BME280;68687;52.030;7.110;2023-11-21T04:30:29;100408.47;;;8.53;100.00
41654;BME280;68687;52.030;7.110;2023-11-21T04:32:54;100413.41;;;8.64;100.00
41654;BME280;68687;52.030;7.110;2023-11-21T04:35:20;100417.06;;;8.71;100.00
41654;BME280;68687;52.030;7.110;2023-11-21T04:37:45;100421.38;;;8.80;100.00
41654;BME280;68687;52.030;7.110;2023-11-21T04:40:11;100422.03;;;8.82;100.00
41654;BME280;68687;52.030;7.110;2023-11-21T04:42:36;100418.34;;;8.83;100.00
41654;BME280;68687;52.030;7.110;2023-11-21T04:45:03;100425.81;;;8.88;100.00
41654;BME280;68687;52.030;7.110;2023-11-21T04:47:32;100423.38;;;8.78;100.00
41654;BME280;68687;52.030;7.110;2023-11-21T04:49:57;100428.78;;;8.93;100.00
41654;BME280;68687;52.030;7.110;2023-11-21T04:52:25;100429.75;;;9.00;100.00
41654;BME280;68687;52.030;7.110;2023-11-21T04:54:51;100429.09;;;8.98;100.00
41654;BME280;68687;52.030;7.110;2023-11-21T04:57:16;100432.59;;;8.98;100.00
41654;BME280;68687;52.030;7.110;2023-11-21T04:59:44;100430.41;;;9.02;100.00
41654;BME280;68687;52.030;7.110;2023-11-21T05:02:09;100437.94;;;8.98;100.00
41654;BME280;68687;52.030;7.110;2023-11-21T05:04:34;100443.72;;;8.87;100.00
41654;BME280;68687;52.030;7.110;2023-11-21T05:06:59;100451.03;;;8.93;100.00
41654;BME280;68687;52.030;7.110;2023-11-21T05:09:35;100452.13;;;8.84;100.00
41654;BME280;68687;52.030;7.110;2023-11-21T05:12:01;100457.38;;;8.70;100.00
41654;BME280;68687;52.030;7.110;2023-11-21T05:14:27;100456.28;;;8.48;100.00
41654;BME280;68687;52.030;7.110;2023-11-21T05:16:52;100465.66;;;8.52;100.00
41654;BME280;68687;52.030;7.110;2023-11-21T05:19:20;100465.00;;;8.50;100.00
41654;BME280;68687;52.030;7.110;2023-11-21T05:21:46;100472.88;;;8.51;100.00
41654;BME280;68687;52.030;7.110;2023-11-21T05:24:11;100472.50;;;8.54;100.00
41654;BME280;68687;52.030;7.110;2023-11-21T05:26:36;100477.03;;;8.54;100.00
41654;BME280;68687;52.030;7.110;2023-11-21T05:29:02;100485.84;;;8.62;100.00
41654;BME280;68687;52.030;7.110;2023-11-21T05:31:27;100481.25;;;8.40;100.00
41654;BME280;68687;52.030;7.110;2023-11-21T05:33:52;100493.00;;;8.23;100.00
41654;BME280;68687;52.030;7.110;2023-11-21T05:36:18;100489.81;;;8.19;100.00
41654;BME280;68687;52.030;7.110;2023-11-21T05:38:43;100497.00;;;8.35;100.00
41654;BME280;68687;52.030;7.110;2023-11-21T05:41:08;100495.41;;;8.49;100.00
41654;BME280;68687;52.030;7.110;2023-11-21T05:43:36;100502.72;;;8.63;100.00
41654;BME280;68687;52.030;7.110;2023-11-21T05:46:07;100501.03;;;8.70;100.00
41654;BME280;68687;52.030;7.110;2023-11-21T05:48:34;100499.88;;;8.64;100.00
41654;BME280;68687;52.030;7.110;2023-11-21T05:51:02;100506.28;;;8.55;100.00
41654;BME280;68687;52.030;7.110;2023-11-21T05:53:28;100503.66;;;8.31;100.00
41654;BME280;68687;52.030;7.110;2023-11-21T05:55:56;100516.34;;;8.45;100.00
41654;BME280;68687;52.030;7.110;2023-11-21T05:58:27;100517.16;;;8.54;100.00
41654;BME280;68687;52.030;7.110;2023-11-21T06:00:52;100521.50;;;8.47;100.00
41654;BME280;68687;52.030;7.110;2023-11-21T06:03:18;100532.56;;;8.52;100.00
41654;BME280;68687;52.030;7.110;2023-11-21T06:05:43;100534.53;;;8.58;100.00
41654;BME280;68687;52.030;7.110;2023-11-21T06:08:08;100540.88;;;8.57;100.00
41654;BME280;68687;52.030;7.110;2023-11-21T06:10:34;100545.94;;;8.44;100.00
41654;BME280;68687;52.030;7.110;2023-11-21T06:12:59;100547.59;;;8.45;100.00
41654;BME280;68687;52.030;7.110;2023-11-21T06:15:24;100549.78;;;8.49;100.00
41654;BME280;68687;52.030;7.110;2023-11-21T06:17:50;100550.09;;;8.46;100.00
41654;BME280;68687;52.030;7.110;2023-11-21T06:20:18;100550.81;;;8.24;100.00
41654;BME280;68687;52.030;7.110;2023-11-21T06:22:45;100555.69;;;8.04;100.00
41654;BME280;68687;52.030;7.110;2023-11-21T06:25:12;100551.19;;;7.96;100.00
41654;BME280;68687;52.030;7.110;2023-11-21T06:27:42;100564.72;;;8.03;100.00
41654;BME280;68687;52.030;7.110;2023-11-21T06:30:08;100564.38;;;8.06;100.00
41654;BME280;68687;52.030;7.110;2023-11-21T06:32:38;100562.03;;;8.03;100.00
41654;BME280;68687;52.030;7.110;2023-11-21T06:35:05;100566.38;;;8.04;100.00
41654;BME280;68687;52.030;7.110;2023-11-21T06:37:31;100564.53;;;8.13;100.00
41654;BME280;68687;52.030;7.110;2023-11-21T06:39:57;100562.69;;;8.05;100.00
41654;BME280;68687;52.030;7.110;2023-11-21T06:42:24;100569.84;;;8.21;100.00
41654;BME280;68687;52.030;7.110;2023-11-21T06:44:52;100561.72;;;7.98;100.00
41654;BME280;68687;52.030;7.110;2023-11-21T06:47:19;100573.72;;;8.02;100.00
41654;BME280;68687;52.030;7.110;2023-11-21T06:49:50;100572.88;;;8.18;100.00
41654;BME280;68687;52.030;7.110;2023-11-21T06:52:15;100579.72;;;8.28;100.00
41654;BME280;68687;52.030;7.110;2023-11-21T06:54:44;100576.88;;;8.30;100.00
41654;BME280;68687;52.030;7.110;2023-11-21T06:57:13;100589.25;;;8.31;100.00
41654;BME280;68687;52.030;7.110;2023-11-21T06:59:38;100593.75;;;8.30;100.00
41654;BME280;68687;52.030;7.110;2023-11-21T07:02:04;100593.94;;;8.37;100.00
41654;BME280;68687;52.030;7.110;2023-11-21T07:04:36;100610.16;;;8.27;100.00
41654;BME280;68687;52.030;7.110;2023-11-21T07:07:02;100607.47;;;8.19;100.00
41654;BME280;68687;52.030;7.110;2023-11-21T07:09:30;100612.66;;;8.29;100.00
41654;BME280;68687;52.030;7.110;2023-11-21T07:11:56;100614.66;;;8.35;100.00
41654;BME280;68687;52.030;7.110;2023-11-21T07:14:24;100612.16;;;8.42;100.00
41654;BME280;68687;52.030;7.110;2023-11-21T07:16:49;100619.50;;;8.40;100.00
41654;BME280;68687;52.030;7.110;2023-11-21T07:19:16;100609.47;;;8.09;100.00
41654;BME280;68687;52.030;7.110;2023-11-21T07:21:41;100622.19;;;8.07;100.00
41654;BME280;68687;52.030;7.110;2023-11-21T07:24:07;100632.19;;;8.13;100.00
41654;BME280;68687;52.030;7.110;2023-11-21T07:26:34;100634.53;;;8.08;100.00
41654;BME280;68687;52.030;7.110;2023-11-21T07:29:00;100640.25;;;7.97;100.00
41654;BME280;68687;52.030;7.110;2023-11-21T07:31:26;100646.56;;;7.80;100.00
41654;BME280;68687;52.030;7.110;2023-11-21T07:33:52;100644.75;;;7.96;100.00
41654;BME280;68687;52.030;7.110;2023-11-21T07:36:18;100647.09;;;7.99;100.00
41654;BME280;68687;52.030;7.110;2023-11-21T07:38:44;100662.94;;;8.01;100.00
41654;BME280;68687;52.030;7.110;2023-11-21T07:41:10;100657.09;;;8.05;100.00
41654;BME280;68687;52.030;7.110;2023-11-21T07:43:36;100667.47;;;8.17;100.00
41654;BME280;68687;52.030;7.110;2023-11-21T07:46:02;100669.97;;;8.26;100.00
41654;BME280;68687;52.030;7.110;2023-11-21T07:48:29;100674.66;;;8.24;100.00
41654;BME280;68687;52.030;7.110;2023-11-21T07:50:58;100687.03;;;8.25;100.00
41654;BME280;68687;52.030;7.110;2023-11-21T07:53:26;100689.19;;;8.30;100.00
41654;BME280;68687;52.030;7.110;2023-11-21T07:56:12;100693.75;;;8.38;100.00
41654;BME280;68687;52.030;7.110;2023-11-21T07:58:38;100706.78;;;8.41;100.00
41654;BME280;68687;52.030;7.110;2023-11-21T08:01:03;100702.41;;;8.48;100.00
41654;BME280;68687;52.030;7.110;2023-11-21T08:03:29;100695.75;;;8.44;100.00
41654;BME280;68687;52.030;7.110;2023-11-21T08:05:58;100708.78;;;8.47;100.00
41654;BME280;68687;52.030;7.110;2023-11-21T08:08:24;100716.31;;;8.51;100.00
41654;BME280;68687;52.030;7.110;2023-11-21T08:10:52;100715.50;;;8.51;100.00
41654;BME280;68687;52.030;7.110;2023-11-21T08:13:25;100716.16;;;8.53;100.00
41654;BME280;68687;52.030;7.110;2023-11-21T08:15:54;100725.34;;;8.58;100.00
41654;BME280;68687;52.030;7.110;2023-11-21T08:18:21;100723.50;;;8.59;100.00
41654;BME280;68687;52.030;7.110;2023-11-21T08:20:55;100729.19;;;8.64;100.00
41654;BME280;68687;52.030;7.110;2023-11-21T08:23:21;100732.53;;;8.66;100.00
41654;BME280;68687;52.030;7.110;2023-11-21T08:25:50;100733.19;;;8.68;100.00
41654;BME280;68687;52.030;7.110;2023-11-21T08:28:16;100738.19;;;8.71;100.00
41654;BME280;68687;52.030;7.110;2023-11-21T08:30:41;100727.66;;;8.70;100.00
41654;BME280;68687;52.030;7.110;2023-11-21T08:33:07;100741.72;;;8.72;100.00
41654;BME280;68687;52.030;7.110;2023-11-21T08:35:34;100740.38;;;8.67;100.00
41654;BME280;68687;52.030;7.110;2023-11-21T08:37:59;100748.38;;;8.76;100.00
41654;BME280;68687;52.030;7.110;2023-11-21T08:40:25;100741.72;;;8.80;100.00
41654;BME280;68687;52.030;7.110;2023-11-21T08:42:50;100741.91;;;8.78;100.00
41654;BME280;68687;52.030;7.110;2023-11-21T08:45:18;100749.41;;;8.83;100.00
41654;BME280;68687;52.030;7.110;2023-11-21T08:47:44;100755.59;;;8.83;100.00
41654;BME280;68687;52.030;7.110;2023-11-21T08:50:13;100756.59;;;8.90;100.00
41654;BME280;68687;52.030;7.110;2023-11-21T08:52:41;100760.28;;;8.89;100.00
41654;BME280;68687;52.030;7.110;2023-11-21T08:55:07;100760.63;;;8.86;100.00
41654;BME280;68687;52.030;7.110;2023-11-21T08:57:36;100772.66;;;8.90;100.00
41654;BME280;68687;52.030;7.110;2023-11-21T09:00:03;100765.63;;;8.89;100.00
41654;BME280;68687;52.030;7.110;2023-11-21T09:02:32;100771.66;;;8.91;100.00
41654;BME280;68687;52.030;7.110;2023-11-21T09:04:59;100775.31;;;8.90;100.00
41654;BME280;68687;52.030;7.110;2023-11-21T09:07:24;100787.03;;;8.89;100.00
41654;BME280;68687;52.030;7.110;2023-11-21T09:09:49;100778.66;;;8.92;100.00
41654;BME280;68687;52.030;7.110;2023-11-21T09:12:18;100779.00;;;8.97;100.00
41654;BME280;68687;52.030;7.110;2023-11-21T09:14:44;100781.31;;;9.01;100.00
41654;BME280;68687;52.030;7.110;2023-11-21T09:17:10;100787.53;;;9.01;100.00
41654;BME280;68687;52.030;7.110;2023-11-21T09:19:39;100786.03;;;8.98;100.00
41654;BME280;68687;52.030;7.110;2023-11-21T09:22:05;100795.56;;;8.93;100.00
41654;BME280;68687;52.030;7.110;2023-11-21T09:24:31;100792.41;;;8.89;100.00
41654;BME280;68687;52.030;7.110;2023-11-21T09:26:56;100802.94;;;8.91;100.00
41654;BME280;68687;52.030;7.110;2023-11-21T09:29:22;100810.81;;;8.84;100.00
41654;BME280;68687;52.030;7.110;2023-11-21T09:31:47;100819.16;;;8.73;100.00
41654;BME280;68687;52.030;7.110;2023-11-21T09:34:13;100809.63;;;8.71;100.00
41654;BME280;68687;52.030;7.110;2023-11-21T09:36:40;100800.75;;;8.62;100.00
41654;BME280;68687;52.030;7.110;2023-11-21T09:39:06;100821.16;;;8.71;100.00
41654;BME280;68687;52.030;7.110;2023-11-21T09:41:40;100820.66;;;8.67;100.00
41654;BME280;68687;52.030;7.110;2023-11-21T09:44:09;100828.34;;;8.62;100.00
41654;BME280;68687;52.030;7.110;2023-11-21T09:46:40;100827.53;;;8.70;100.00
41654;BME280;68687;52.030;7.110;2023-11-21T09:49:08;100830.88;;;8.64;100.00
41654;BME280;68687;52.030;7.110;2023-11-21T09:51:39;100827.84;;;8.67;100.00
41654;BME280;68687;52.030;7.110;2023-11-21T09:54:06;100834.56;;;8.79;100.00
41654;BME280;68687;52.030;7.110;2023-11-21T09:56:34;100830.38;;;8.77;100.00
41654;BME280;68687;52.030;7.110;2023-11-21T09:59:00;100838.72;;;8.65;100.00
41654;BME280;68687;52.030;7.110;2023-11-21T10:01:32;100850.09;;;8.76;100.00
41654;BME280;68687;52.030;7.110;2023-11-21T10:03:58;100845.91;;;8.73;100.00
41654;BME280;68687;52.030;7.110;2023-11-21T10:06:26;100853.13;;;8.81;100.00
41654;BME280;68687;52.030;7.110;2023-11-21T10:08:53;100856.81;;;8.80;100.00
41654;BME280;68687;52.030;7.110;2023-11-21T10:11:19;100859.66;;;8.78;100.00
41654;BME280;68687;52.030;7.110;2023-11-21T10:13:46;100855.63;;;8.74;100.00
41654;BME280;68687;52.030;7.110;2023-11-21T10:16:14;100861.81;;;8.66;100.00
41654;BME280;68687;52.030;7.110;2023-11-21T10:18:41;100866.16;;;8.59;100.00
41654;BME280;68687;52.030;7.110;2023-11-21T10:21:07;100867.16;;;8.58;100.00
41654;BME280;68687;52.030;7.110;2023-11-21T10:23:34;100874.03;;;8.61;100.00
41654;BME280;68687;52.030;7.110;2023-11-21T10:25:59;100865.66;;;8.72;100.00
41654;BME280;68687;52.030;7.110;2023-11-21T10:28:25;100882.38;;;8.66;100.00
41654;BME280;68687;52.030;7.110;2023-11-21T10:30:51;100881.22;;;8.68;100.00
41654;BME280;68687;52.030;7.110;2023-11-21T10:33:16;100879.06;;;8.80;100.00
41654;BME280;68687;52.030;7.110;2023-11-21T10:38:10;100891.41;;;8.65;100.00
41654;BME280;68687;52.030;7.110;2023-11-21T10:40:44;100881.72;;;8.72;100.00
41654;BME280;68687;52.030;7.110;2023-11-21T10:43:11;100887.41;;;8.69;100.00
41654;BME280;68687;52.030;7.110;2023-11-21T10:45:38;100893.09;;;8.74;100.00
41654;BME280;68687;52.030;7.110;2023-11-21T10:48:08;100889.09;;;8.78;100.00
41654;BME280;68687;52.030;7.110;2023-11-21T10:50:34;100886.44;;;8.78;100.00
41654;BME280;68687;52.030;7.110;2023-11-21T10:53:01;100901.78;;;8.76;100.00
41654;BME280;68687;52.030;7.110;2023-11-21T10:55:27;100893.63;;;8.86;100.00
41654;BME280;68687;52.030;7.110;2023-11-21T10:57:53;100891.78;;;8.86;100.00
41654;BME280;68687;52.030;7.110;2023-11-21T11:00:19;100886.28;;;8.80;100.00
41654;BME280;68687;52.030;7.110;2023-11-21T11:02:53;100894.09;;;8.73;100.00
41654;BME280;68687;52.030;7.110;2023-11-21T11:05:28;100897.97;;;8.79;100.00
41654;BME280;68687;52.030;7.110;2023-11-21T11:08:05;100903.63;;;8.76;100.00
41654;BME280;68687;52.030;7.110;2023-11-21T11:10:31;100902.31;;;8.80;100.00
41654;BME280;68687;52.030;7.110;2023-11-21T11:12:57;100905.50;;;8.83;100.00
41654;BME280;68687;52.030;7.110;2023-11-21T11:15:24;100913.03;;;8.88;100.00
41654;BME280;68687;52.030;7.110;2023-11-21T11:17:50;100913.19;;;8.86;100.00
41654;BME280;68687;52.030;7.110;2023-11-21T11:20:23;100915.72;;;8.96;100.00
41654;BME280;68687;52.030;7.110;2023-11-21T11:28:57;100918.22;;;8.81;100.00
41654;BME280;68687;52.030;7.110;2023-11-21T11:31:39;100920.91;;;8.81;100.00
41654;BME280;68687;52.030;7.110;2023-11-21T11:34:21;100924.41;;;8.82;100.00
41654;BME280;68687;52.030;7.110;2023-11-21T11:37:07;100922.06;;;8.87;100.00
41654;BME280;68687;52.030;7.110;2023-11-21T11:39:42;100910.19;;;8.89;100.00
41654;BME280;68687;52.030;7.110;2023-11-21T11:42:12;100919.22;;;8.88;100.00
41654;BME280;68687;52.030;7.110;2023-11-21T11:47:23;100926.59;;;8.86;100.00
41654;BME280;68687;52.030;7.110;2023-11-21T11:50:15;100929.94;;;8.88;100.00
41654;BME280;68687;52.030;7.110;2023-11-21T11:52:44;100937.63;;;8.83;100.00
41654;BME280;68687;52.030;7.110;2023-11-21T11:55:15;100945.31;;;8.78;100.00
41654;BME280;68687;52.030;7.110;2023-11-21T11:57:51;100951.00;;;8.83;100.00
41654;BME280;68687;52.030;7.110;2023-11-21T12:00:18;100953.38;;;8.86;100.00
41654;BME280;68687;52.030;7.110;2023-11-21T12:02:46;100964.22;;;8.77;100.00
41654;BME280;68687;52.030;7.110;2023-11-21T12:05:17;100965.34;;;8.74;100.00
41654;BME280;68687;52.030;7.110;2023-11-21T12:07:50;100966.56;;;8.80;100.00
41654;BME280;68687;52.030;7.110;2023-11-21T12:10:20;100966.84;;;8.68;100.00
41654;BME280;68687;52.030;7.110;2023-11-21T12:12:47;100965.03;;;8.69;100.00
41654;BME280;68687;52.030;7.110;2023-11-21T12:15:12;100977.06;;;8.65;100.00
41654;BME280;68687;52.030;7.110;2023-11-21T12:17:41;100972.38;;;8.67;100.00
41654;BME280;68687;52.030;7.110;2023-11-21T12:20:08;100968.53;;;8.70;100.00
41654;BME280;68687;52.030;7.110;2023-11-21T12:22:59;100981.06;;;8.69;100.00
41654;BME280;68687;52.030;7.110;2023-11-21T12:25:29;100989.00;;;8.79;100.00
41654;BME280;68687;52.030;7.110;2023-11-21T12:27:57;100991.94;;;8.67;100.00
41654;BME280;68687;52.030;7.110;2023-11-21T12:30:25;100982.06;;;8.68;100.00
41654;BME280;68687;52.030;7.110;2023-11-21T12:32:55;100994.44;;;8.61;100.00
41654;BME280;68687;52.030;7.110;2023-11-21T12:35:34;101000.78;;;8.60;100.00
41654;BME280;68687;52.030;7.110;2023-11-21T12:38:00;101009.50;;;8.62;100.00
41654;BME280;68687;52.030;7.110;2023-11-21T12:40:28;101008.47;;;8.55;100.00
41654;BME280;68687;52.030;7.110;2023-11-21T12:42:56;101006.47;;;8.57;100.00
41654;BME280;68687;52.030;7.110;2023-11-21T12:45:22;101013.31;;;8.51;100.00
41654;BME280;68687;52.030;7.110;2023-11-21T12:47:52;101017.34;;;8.55;100.00
41654;BME280;68687;52.030;7.110;2023-11-21T12:50:20;101015.16;;;8.59;100.00
41654;BME280;68687;52.030;7.110;2023-11-21T12:52:57;101023.34;;;8.49;100.00
41654;BME280;68687;52.030;7.110;2023-11-21T12:55:24;101030.81;;;8.46;100.00
41654;BME280;68687;52.030;7.110;2023-11-21T12:57:51;101022.34;;;8.50;100.00
41654;BME280;68687;52.030;7.110;2023-11-21T13:00:18;101030.56;;;8.57;100.00
41654;BME280;68687;52.030;7.110;2023-11-21T13:02:55;101031.03;;;8.52;100.00